This is the latest recevied weather packets stored in our database for station/object OM1PU-6. If no packets are shown the sender has not sent any weather packets the latest 1 day(s).
| Time | Temp. | Humidity | Pressure | Rain* | Wind** | Luminosity | Snow |
|---|---|---|---|---|---|---|---|
| 1778117598 | 15° C | 82% | 1021 hPa | 0 mm | - | - | - |
| 1778116698 | 15° C | 81% | 1020.7 hPa | 0 mm | - | - | - |
| 1778115798 | 15° C | 80% | 1020.8 hPa | 0 mm | - | - | - |
| 1778113999 | 15.56° C | 78% | 1020.4 hPa | 0 mm | - | - | - |
| 1778082498 | 23.89° C | 48% | 1018.1 hPa | 0 mm | - | - | - |
| 1778075298 | 24.44° C | 45% | 1018.7 hPa | 0 mm | - | - | - |
| 1778073498 | 24.44° C | 45% | 1018.8 hPa | 0 mm | - | - | - |
| 1778069898 | 25° C | 47% | 1019.5 hPa | 0 mm | - | - | - |
| 1778068998 | 25° C | 47% | 1019.5 hPa | 0 mm | - | - | - |
| 1778067198 | 24.44° C | 50% | 1019.8 hPa | 0 mm | - | - | - |
| 1778064497 | 23.89° C | 53% | 1020.5 hPa | 0 mm | - | - | - |
| 1778063598 | 23.89° C | 56% | 1020.7 hPa | 0 mm | - | - | - |
| 1778062698 | 22.78° C | 56% | 1020.8 hPa | 0 mm | - | - | - |
| 1778061798 | 22.78° C | 57% | 1020.9 hPa | 0 mm | - | - | - |
| 1778060898 | 22.22° C | 61% | 1021.1 hPa | 0 mm | - | - | - |
| 1778059097 | 22.78° C | 59% | 1021 hPa | 0 mm | - | - | - |
| 1778056397 | 22.22° C | 60% | 1021.2 hPa | 0 mm | - | - | - |
| 1778055497 | 23.33° C | 57% | 1021 hPa | 0 mm | - | - | - |
| 1778054598 | 21.67° C | 59% | 1021.1 hPa | 0 mm | - | - | - |
| 1778053697 | 20.56° C | 62% | 1021 hPa | 0 mm | - | - | - |
| 1778052798 | 20° C | 63% | 1020.8 hPa | 0 mm | - | - | - |
| 1778050998 | 19.44° C | 67% | 1021.3 hPa | 0 mm | - | - | - |
| 1778050097 | 18.33° C | 69% | 1021.4 hPa | 0 mm | - | - | - |
| 1778049198 | 16.67° C | 75% | 1021.2 hPa | 0 mm | - | - | - |
| 1778048297 | 16.11° C | 77% | 1021.4 hPa | 0 mm | - | - | - |
* Rain latest 24 hours (hover to see other rain measurements)
** Current wind speed in m/s (hover to see current wind gust speed)